Time;durP1;ratioP1;P1;durP2;ratioP2;P2;SDS_P1;SDS_P2;PMS_P1;PMS_P2;Temp;Humidity;BMP_temperature;BMP_pressure;BME280_temperature;BME280_humidity;BME280_pressure;Samples;Min_cycle;Max_cycle;Signal;HPM_P1;HPM_P2
2023/01/21 00:01:58;;;;;;;;;;;;;;;5.89;46.93;100288.75;5118181;27;19920;-79
2023/01/21 00:04:43;;;;;;;;;;;;;;;5.73;47.85;100286.59;5115707;28;19912;-79
2023/01/21 00:07:27;;;;;;;;;;;;;;;5.49;48.20;100287.47;5100736;28;19912;-79
2023/01/21 00:10:11;;;;;;;;;;;;;;;5.64;44.32;100280.25;5111837;28;19912;-80
2023/01/21 00:12:56;;;;;;;;;;;;;;;5.73;42.34;100275.78;5119538;28;19912;-80
2023/01/21 00:15:40;;;;;;;;;;;;;;;5.89;43.81;100275.28;5119462;28;19912;-80
2023/01/21 00:18:25;;;;;;;;;;;;;;;6.13;41.62;100266.25;5105859;28;19916;-80
2023/01/21 00:21:09;;;;;;;;;;;;;;;6.18;39.67;100275.06;5120845;28;19912;-80
2023/01/21 00:23:53;;;;;;;;;;;;;;;6.07;39.11;100267.44;5114109;28;19911;-80
2023/01/21 00:26:38;;;;;;;;;;;;;;;6.27;41.83;100262.47;5114753;28;20402;-80
2023/01/21 00:29:22;;;;;;;;;;;;;;;6.34;41.50;100256.69;5120678;28;19911;-80
2023/01/21 00:32:07;;;;;;;;;;;;;;;6.58;42.20;100254.63;5114658;28;19916;-80
2023/01/21 00:34:52;;;;;;;;;;;;;;;6.60;38.43;100251.63;5114384;28;19912;-80
2023/01/21 00:37:36;;;;;;;;;;;;;;;6.63;37.87;100243.72;5112945;28;20299;-80
2023/01/21 00:40:21;;;;;;;;;;;;;;;6.73;39.75;100240.81;5119369;28;19916;-80
2023/01/21 00:43:06;;;;;;;;;;;;;;;6.76;38.58;100239.41;5120611;28;19912;-80
2023/01/21 00:45:50;;;;;;;;;;;;;;;6.77;38.23;100236.41;5113409;28;19911;-80
2023/01/21 00:48:35;;;;;;;;;;;;;;;6.72;36.52;100233.81;5100191;28;19912;-80
2023/01/21 00:51:19;;;;;;;;;;;;;;;6.70;38.41;100236.03;5100502;28;19912;-81
2023/01/21 00:54:04;;;;;;;;;;;;;;;6.78;37.87;100232.59;5112565;28;19912;-80
2023/01/21 00:56:48;;;;;;;;;;;;;;;6.70;36.52;100229.81;5116004;28;19919;-81
2023/01/21 00:59:33;;;;;;;;;;;;;;;6.74;39.05;100231.59;5123781;28;19912;-81
2023/01/21 01:02:17;;;;;;;;;;;;;;;6.75;38.97;100232.41;5114689;28;19915;-81
2023/01/21 01:05:02;;;;;;;;;;;;;;;6.89;38.57;100233.19;5112749;28;20376;-81
2023/01/21 01:07:46;;;;;;;;;;;;;;;6.81;39.07;100221.19;5124499;28;19912;-81
2023/01/21 01:10:31;;;;;;;;;;;;;;;6.90;38.67;100225.88;5123957;28;19912;-80
2023/01/21 01:13:15;;;;;;;;;;;;;;;6.93;37.41;100217.16;5108172;28;19911;-81
2023/01/21 01:16:01;;;;;;;;;;;;;;;6.95;39.87;100220.38;5102733;28;19912;-81
2023/01/21 01:18:46;;;;;;;;;;;;;;;6.96;39.98;100221.97;5113526;28;20302;-81
2023/01/21 01:21:30;;;;;;;;;;;;;;;6.96;40.85;100217.34;5124268;28;19911;-81
2023/01/21 01:24:16;;;;;;;;;;;;;;;6.94;38.89;100218.75;5125336;28;19912;-81
2023/01/21 01:27:00;;;;;;;;;;;;;;;6.97;38.50;100223.56;5126437;28;19916;-80
2023/01/21 01:29:45;;;;;;;;;;;;;;;6.92;37.35;100216.34;5117271;28;20290;-80
2023/01/21 01:32:29;;;;;;;;;;;;;;;7.05;39.01;100215.56;5125960;28;19915;-80
2023/01/21 01:35:14;;;;;;;;;;;;;;;7.08;37.73;100217.63;5124750;28;19911;-81
2023/01/21 01:38:00;;;;;;;;;;;;;;;7.15;37.91;100206.41;5107927;28;19916;-81
2023/01/21 01:40:46;;;;;;;;;;;;;;;7.00;37.25;100212.16;5113985;28;19911;-80
2023/01/21 01:43:49;;;;;;;;;;;;;;;6.98;37.70;100204.34;5116007;28;19912;-80
2023/01/21 01:46:35;;;;;;;;;;;;;;;7.03;35.92;100195.31;5119484;28;19912;-80
2023/01/21 01:49:20;;;;;;;;;;;;;;;7.18;35.88;100192.28;5109154;28;19916;-80
2023/01/21 01:52:06;;;;;;;;;;;;;;;7.24;38.77;100189.16;5126345;28;19911;-80
2023/01/21 01:54:52;;;;;;;;;;;;;;;7.28;38.37;100194.75;5126344;28;19938;-80
2023/01/21 01:57:38;;;;;;;;;;;;;;;7.14;35.38;100180.47;5112989;28;19915;-80
2023/01/21 02:00:23;;;;;;;;;;;;;;;7.29;37.22;100177.41;5110342;28;19916;-80
2023/01/21 02:06:12;;;;;;;;;;;;;;;7.10;36.90;100163.28;5123015;28;19912;-80
2023/01/21 02:08:56;;;;;;;;;;;;;;;7.02;36.02;100163.97;5115258;28;19912;-80
2023/01/21 02:11:41;;;;;;;;;;;;;;;7.15;39.29;100152.34;5119420;28;19911;-80
2023/01/21 02:14:26;;;;;;;;;;;;;;;7.23;37.93;100151.59;5124319;28;19911;-80
2023/01/21 02:17:29;;;;;;;;;;;;;;;7.33;38.31;100148.66;5122014;28;19915;-79
2023/01/21 02:20:32;;;;;;;;;;;;;;;7.22;36.12;100136.47;5120952;28;19911;-80
2023/01/21 02:23:22;;;;;;;;;;;;;;;7.26;36.66;100140.97;5119704;28;19915;-79
2023/01/21 02:26:16;;;;;;;;;;;;;;;7.21;37.02;100129.50;5106953;28;19912;-80
2023/01/21 02:29:19;;;;;;;;;;;;;;;7.29;37.49;100126.03;5114284;28;19912;-79
2023/01/21 02:32:13;;;;;;;;;;;;;;;7.30;39.71;100120.31;5100232;28;19914;-79
2023/01/21 02:35:12;;;;;;;;;;;;;;;7.21;38.48;100110.56;5099199;28;19912;-79
2023/01/21 02:38:05;;;;;;;;;;;;;;;7.26;35.76;100111.22;5098544;28;19916;-79
2023/01/21 02:40:53;;;;;;;;;;;;;;;7.23;37.64;100102.94;5106911;28;19911;-79
2023/01/21 02:43:42;;;;;;;;;;;;;;;7.31;36.39;100099.50;5096086;28;19912;-79
2023/01/21 02:46:33;;;;;;;;;;;;;;;7.40;38.77;100094.94;5115945;28;20298;-79
2023/01/21 02:49:26;;;;;;;;;;;;;;;7.57;37.59;100095.00;5110901;28;19912;-79
2023/01/21 02:52:17;;;;;;;;;;;;;;;7.59;39.47;100089.31;5109851;28;19912;-79
2023/01/21 02:55:02;;;;;;;;;;;;;;;7.53;37.75;100093.25;5098793;28;19912;-79
2023/01/21 02:57:49;;;;;;;;;;;;;;;7.34;34.24;100076.44;5084642;28;20371;-79
2023/01/21 03:00:39;;;;;;;;;;;;;;;7.35;38.65;100081.53;5084588;28;19912;-80
2023/01/21 03:03:34;;;;;;;;;;;;;;;7.48;37.58;100077.16;5113040;28;19912;-80
2023/01/21 03:06:31;;;;;;;;;;;;;;;7.43;36.58;100069.16;5113150;28;19919;-79
2023/01/21 03:09:19;;;;;;;;;;;;;;;7.60;37.60;100063.84;5119327;28;19912;-80
2023/01/21 03:12:15;;;;;;;;;;;;;;;7.46;36.02;100058.53;5101762;28;19912;-79
2023/01/21 03:18:08;;;;;;;;;;;;;;;7.51;36.12;100065.72;5115644;28;20290;-79
2023/01/21 03:20:55;;;;;;;;;;;;;;;7.47;35.95;100052.00;5115702;28;19911;-79
2023/01/21 03:23:41;;;;;;;;;;;;;;;7.61;35.96;100043.81;5102548;28;19915;-79
2023/01/21 03:26:31;;;;;;;;;;;;;;;7.51;35.72;100044.88;5096304;28;19911;-79
2023/01/21 03:29:18;;;;;;;;;;;;;;;7.65;41.00;100039.38;5100830;28;20304;-79
2023/01/21 03:32:05;;;;;;;;;;;;;;;7.58;35.81;100039.81;5096289;28;19966;-79
2023/01/21 03:34:51;;;;;;;;;;;;;;;7.50;36.14;100043.28;5108673;28;19916;-79
2023/01/21 03:37:51;;;;;;;;;;;;;;;7.53;36.29;100036.44;5122325;28;19916;-80
2023/01/21 03:40:39;;;;;;;;;;;;;;;7.49;35.46;100033.56;5124159;28;20290;-80
2023/01/21 03:43:24;;;;;;;;;;;;;;;7.43;34.57;100026.69;5112704;28;19920;-80
2023/01/21 03:46:13;;;;;;;;;;;;;;;7.55;36.50;100037.72;5107356;28;19923;-80
2023/01/21 03:49:04;;;;;;;;;;;;;;;7.58;36.81;100031.69;5118060;28;20370;-80
2023/01/21 03:51:51;;;;;;;;;;;;;;;7.63;34.14;100033.44;5124506;28;19912;-80
2023/01/21 03:54:36;;;;;;;;;;;;;;;7.54;35.76;100022.59;5119164;28;19912;-79
2023/01/21 03:57:20;;;;;;;;;;;;;;;7.59;35.39;100021.66;5120024;28;19916;-79
2023/01/21 04:00:06;;;;;;;;;;;;;;;7.61;37.67;100028.38;5123508;28;19911;-80
2023/01/21 04:02:50;;;;;;;;;;;;;;;7.47;33.99;100022.25;5123339;28;19911;-80
2023/01/21 04:05:35;;;;;;;;;;;;;;;7.55;36.50;100018.78;5110022;28;19912;-80
2023/01/21 04:08:19;;;;;;;;;;;;;;;7.64;37.15;100011.50;5123344;28;19916;-80
2023/01/21 04:11:04;;;;;;;;;;;;;;;7.62;35.02;100019.13;5110576;28;19912;-80
2023/01/21 04:13:48;;;;;;;;;;;;;;;7.59;34.45;100024.38;5116590;28;19912;-80
2023/01/21 04:16:32;;;;;;;;;;;;;;;7.55;38.03;100018.78;5113004;28;19912;-80
2023/01/21 04:19:17;;;;;;;;;;;;;;;7.61;37.00;100028.38;5110659;28;19916;-80
2023/01/21 04:22:01;;;;;;;;;;;;;;;7.73;37.94;100014.22;5122519;28;19916;-80
2023/01/21 04:24:46;;;;;;;;;;;;;;;7.77;39.28;100011.72;5112281;28;19911;-80
2023/01/21 04:27:30;;;;;;;;;;;;;;;7.79;36.59;100014.88;5121341;28;21112;-80
2023/01/21 04:30:15;;;;;;;;;;;;;;;7.66;35.55;100022.81;5112565;28;19922;-80
2023/01/21 04:32:59;;;;;;;;;;;;;;;7.60;35.74;100021.38;5119123;28;19931;-80
2023/01/21 04:35:44;;;;;;;;;;;;;;;7.58;33.78;100025.47;5115773;28;20359;-80
2023/01/21 04:38:28;;;;;;;;;;;;;;;7.63;37.32;100026.13;5121865;28;20299;-80
2023/01/21 04:41:13;;;;;;;;;;;;;;;7.64;35.37;100025.03;5119145;28;19912;-79
2023/01/21 04:43:57;;;;;;;;;;;;;;;7.72;35.43;100023.47;5125309;28;20382;-80
2023/01/21 04:46:42;;;;;;;;;;;;;;;7.71;36.24;100022.69;5125221;28;19911;-79
2023/01/21 04:49:26;;;;;;;;;;;;;;;7.64;35.03;100021.53;5122885;28;19912;-79
2023/01/21 04:52:11;;;;;;;;;;;;;;;7.63;35.34;100025.34;5129076;28;19912;-79
2023/01/21 04:54:55;;;;;;;;;;;;;;;7.71;33.49;100027.28;5115578;28;20379;-79
2023/01/21 04:57:39;;;;;;;;;;;;;;;7.60;35.86;100032.19;5118386;28;19920;-78
2023/01/21 05:00:24;;;;;;;;;;;;;;;7.55;35.69;100031.53;5117408;28;19912;-79
2023/01/21 05:03:08;;;;;;;;;;;;;;;7.55;36.95;100032.31;5113388;28;19911;-78
2023/01/21 05:05:53;;;;;;;;;;;;;;;7.64;38.62;100033.16;5103141;28;20291;-79
2023/01/21 05:08:37;;;;;;;;;;;;;;;7.64;35.77;100030.44;5105215;28;19919;-80
2023/01/21 05:11:22;;;;;;;;;;;;;;;7.58;32.62;100030.88;5105399;28;19916;-81
2023/01/21 05:14:06;;;;;;;;;;;;;;;7.46;36.05;100028.00;5127032;28;20382;-81
2023/01/21 05:16:51;;;;;;;;;;;;;;;7.47;33.36;100041.19;5108788;28;19911;-81
2023/01/21 05:19:35;;;;;;;;;;;;;;;7.43;36.80;100032.09;5113432;28;19915;-81
2023/01/21 05:22:20;;;;;;;;;;;;;;;7.38;35.02;100040.34;5123211;28;19916;-79
2023/01/21 05:25:04;;;;;;;;;;;;;;;7.45;36.13;100034.50;5122545;28;19911;-79
2023/01/21 05:27:50;;;;;;;;;;;;;;;7.55;33.72;100043.16;5122895;28;19915;-79
2023/01/21 05:30:35;;;;;;;;;;;;;;;7.48;34.75;100031.97;5116263;28;19911;-80
2023/01/21 05:33:24;;;;;;;;;;;;;;;7.58;34.91;100042.50;5108554;28;19915;-80
2023/01/21 05:36:09;;;;;;;;;;;;;;;7.50;35.44;100037.88;5121710;28;19919;-79
2023/01/21 05:38:54;;;;;;;;;;;;;;;7.41;35.03;100041.63;5114926;28;19916;-79
2023/01/21 05:41:38;;;;;;;;;;;;;;;7.38;33.04;100043.03;5105488;28;19911;-79
2023/01/21 05:44:23;;;;;;;;;;;;;;;7.47;33.50;100038.47;5120341;28;19911;-80
2023/01/21 05:47:07;;;;;;;;;;;;;;;7.32;34.62;100039.69;5098236;28;19911;-79
2023/01/21 05:49:51;;;;;;;;;;;;;;;7.40;34.74;100043.53;5105976;28;20382;-80
2023/01/21 05:52:36;;;;;;;;;;;;;;;7.33;35.57;100054.00;5116936;28;19912;-79
2023/01/21 05:55:20;;;;;;;;;;;;;;;7.34;33.88;100047.47;5119711;28;19911;-79
2023/01/21 05:58:05;;;;;;;;;;;;;;;7.35;35.30;100054.50;5120247;28;19916;-79
2023/01/21 06:00:50;;;;;;;;;;;;;;;7.38;35.14;100047.66;5108920;28;19916;-79
2023/01/21 06:03:35;;;;;;;;;;;;;;;7.41;36.06;100045.16;5117845;28;19912;-79
2023/01/21 06:06:19;;;;;;;;;;;;;;;7.36;33.05;100052.59;5109757;28;19911;-79
2023/01/21 06:09:04;;;;;;;;;;;;;;;7.31;32.67;100053.53;5119268;28;20286;-79
2023/01/21 06:11:48;;;;;;;;;;;;;;;7.39;34.95;100051.97;5115401;28;19912;-79
2023/01/21 06:14:33;;;;;;;;;;;;;;;7.42;33.31;100054.03;5101526;28;19915;-79
2023/01/21 06:17:17;;;;;;;;;;;;;;;7.39;32.63;100057.38;5117890;28;19911;-79
2023/01/21 06:20:02;;;;;;;;;;;;;;;7.41;35.06;100060.56;5098884;28;20378;-79
2023/01/21 06:22:46;;;;;;;;;;;;;;;7.44;34.17;100060.75;5105918;28;19912;-81
2023/01/21 06:25:31;;;;;;;;;;;;;;;7.46;35.94;100063.94;5098243;28;19912;-80
2023/01/21 06:28:16;;;;;;;;;;;;;;;7.49;34.57;100070.63;5090263;28;19912;-80
2023/01/21 06:31:00;;;;;;;;;;;;;;;7.42;36.31;100062.16;5105315;28;20487;-80
2023/01/21 06:33:44;;;;;;;;;;;;;;;7.51;35.31;100074.63;5106193;28;19912;-80
2023/01/21 06:36:29;;;;;;;;;;;;;;;7.36;34.52;100072.31;5111950;28;19912;-79
2023/01/21 06:39:14;;;;;;;;;;;;;;;7.38;34.81;100069.28;5125460;28;20290;-79
2023/01/21 06:41:58;;;;;;;;;;;;;;;7.42;34.18;100071.06;5114756;28;19911;-79
2023/01/21 06:44:43;;;;;;;;;;;;;;;7.54;33.76;100084.03;5114925;28;19912;-79
2023/01/21 06:47:27;;;;;;;;;;;;;;;7.46;34.03;100091.00;5122810;28;19912;-79
2023/01/21 06:50:13;;;;;;;;;;;;;;;7.37;34.58;100082.00;5123665;28;20375;-79
2023/01/21 06:52:57;;;;;;;;;;;;;;;7.41;34.05;100083.00;5119461;28;20371;-78
2023/01/21 06:55:42;;;;;;;;;;;;;;;7.49;34.85;100089.56;5111755;28;19911;-79
2023/01/21 06:58:26;;;;;;;;;;;;;;;7.43;34.33;100090.78;5121327;28;19916;-79
2023/01/21 07:01:11;;;;;;;;;;;;;;;7.37;34.34;100100.94;5115890;28;19911;-79
2023/01/21 07:03:56;;;;;;;;;;;;;;;7.47;36.26;100097.97;5106610;28;19911;-78
2023/01/21 07:06:40;;;;;;;;;;;;;;;7.34;34.85;100106.97;5100753;28;19911;-78
2023/01/21 07:09:25;;;;;;;;;;;;;;;7.41;33.44;100106.56;5117174;28;19912;-78
2023/01/21 07:12:09;;;;;;;;;;;;;;;7.38;36.08;100107.97;5116500;28;19912;-78
2023/01/21 07:14:53;;;;;;;;;;;;;;;7.40;34.95;100108.47;5114942;28;19915;-78
2023/01/21 07:17:38;;;;;;;;;;;;;;;7.39;35.57;100114.16;5113675;28;21319;-78
2023/01/21 07:20:23;;;;;;;;;;;;;;;7.39;35.42;100120.38;5105266;28;19912;-78
2023/01/21 07:23:07;;;;;;;;;;;;;;;7.40;34.44;100127.38;5116540;28;19911;-78
2023/01/21 07:25:51;;;;;;;;;;;;;;;7.41;35.34;100122.78;5100631;28;19912;-78
2023/01/21 07:28:36;;;;;;;;;;;;;;;7.37;34.84;100129.88;5107053;28;19911;-78
2023/01/21 07:31:20;;;;;;;;;;;;;;;7.29;33.89;100123.34;5104855;28;19920;-78
2023/01/21 07:34:05;;;;;;;;;;;;;;;7.30;35.58;100130.34;5104077;28;20374;-79
2023/01/21 07:36:49;;;;;;;;;;;;;;;7.34;34.53;100125.91;5101826;28;20286;-79
2023/01/21 07:39:34;;;;;;;;;;;;;;;7.44;35.51;100125.66;5101928;28;19920;-79
2023/01/21 07:42:20;;;;;;;;;;;;;;;7.37;33.58;100125.28;5113854;28;19911;-79
2023/01/21 07:45:05;;;;;;;;;;;;;;;7.40;33.75;100129.28;5098975;28;19912;-79
2023/01/21 07:47:50;;;;;;;;;;;;;;;7.45;34.77;100126.47;5099716;28;19915;-78
2023/01/21 07:50:34;;;;;;;;;;;;;;;7.56;37.09;100134.03;5110010;28;19915;-78
2023/01/21 07:53:19;;;;;;;;;;;;;;;7.60;35.45;100135.00;5110145;28;19912;-78
2023/01/21 07:56:06;;;;;;;;;;;;;;;7.68;34.41;100141.56;5113720;28;19911;-78
2023/01/21 07:58:51;;;;;;;;;;;;;;;7.76;35.05;100148.13;5096032;28;19920;-79
2023/01/21 08:01:35;;;;;;;;;;;;;;;7.68;33.91;100145.06;5115000;28;20289;-78
2023/01/21 08:04:21;;;;;;;;;;;;;;;7.81;34.30;100142.59;5116522;27;19924;-78
2023/01/21 08:07:08;;;;;;;;;;;;;;;7.83;34.53;100149.28;5094012;28;20286;-78
2023/01/21 08:09:52;;;;;;;;;;;;;;;7.82;33.38;100152.31;5104395;28;20385;-79
2023/01/21 08:12:39;;;;;;;;;;;;;;;7.90;34.28;100156.97;5089793;28;19916;-79
2023/01/21 08:15:23;;;;;;;;;;;;;;;7.95;33.25;100159.53;5096222;28;19912;-80
2023/01/21 08:18:08;;;;;;;;;;;;;;;8.03;35.00;100159.56;5096833;28;19915;-79
2023/01/21 08:20:53;;;;;;;;;;;;;;;8.10;35.50;100151.81;5104669;28;19911;-79
2023/01/21 08:23:37;;;;;;;;;;;;;;;8.11;34.61;100155.31;5113254;28;19911;-78
2023/01/21 08:26:22;;;;;;;;;;;;;;;8.08;33.03;100161.34;5106443;28;19912;-79
2023/01/21 08:29:06;;;;;;;;;;;;;;;8.06;34.75;100153.56;5110163;28;19912;-79
2023/01/21 08:31:51;;;;;;;;;;;;;;;8.13;34.69;100158.50;5107902;28;19915;-79
2023/01/21 08:34:35;;;;;;;;;;;;;;;8.12;32.91;100151.50;5094048;28;19912;-78
2023/01/21 08:37:20;;;;;;;;;;;;;;;8.24;33.27;100154.41;5094749;28;19912;-78
2023/01/21 08:40:04;;;;;;;;;;;;;;;8.28;34.94;100160.78;5095906;28;20287;-79
2023/01/21 08:42:49;;;;;;;;;;;;;;;9.04;46.67;100169.44;5106301;28;19912;-82
2023/01/21 08:45:33;;;;;;;;;;;;;;;9.57;35.49;100160.97;5101746;28;19911;-84
2023/01/21 08:48:18;;;;;;;;;;;;;;;9.25;32.38;100173.09;5113552;28;19912;-86
2023/01/21 08:51:02;;;;;;;;;;;;;;;10.01;43.08;100181.44;5116425;28;20309;-86
2023/01/21 08:53:50;;;;;;;;;;;;;;;10.47;37.54;100174.44;5107094;28;19912;-86
2023/01/21 08:56:34;;;;;;;;;;;;;;;10.53;39.91;100173.94;5116234;28;19911;-85
2023/01/21 08:59:27;;;;;;;;;;;;;;;10.18;37.21;100178.72;5108204;28;19916;-85
2023/01/21 09:02:11;;;;;;;;;;;;;;;9.69;32.88;100179.31;5112755;28;19912;-84
2023/01/21 09:04:56;;;;;;;;;;;;;;;9.49;33.72;100188.13;5094182;28;19912;-86
2023/01/21 09:07:40;;;;;;;;;;;;;;;9.64;32.14;100191.13;5108139;28;20293;-85
2023/01/21 09:13:28;;;;;;;;;;;;;;;10.02;34.04;100202.06;5106755;28;19912;-85
2023/01/21 09:16:14;;;;;;;;;;;;;;;10.27;33.67;100198.50;5096139;28;19912;-84
2023/01/21 09:19:00;;;;;;;;;;;;;;;9.85;29.70;100192.03;5107466;28;19920;-84
2023/01/21 09:21:44;;;;;;;;;;;;;;;9.62;29.79;100195.28;5111719;28;19912;-84
2023/01/21 09:24:29;;;;;;;;;;;;;;;9.43;28.53;100201.84;5112172;28;19912;-82
2023/01/21 09:27:13;;;;;;;3.92;0.70;;;;;;;9.78;30.03;100199.09;5110977;28;20409;-84
2023/01/21 09:29:57;;;;;;;1.45;0.70;;;;;;;9.91;26.69;100197.28;5098063;28;20043;-79
2023/01/21 09:32:42;;;;;;;0.88;0.75;;;;;;;9.45;26.59;100196.09;5114309;28;20402;-78
2023/01/21 09:35:26;;;;;;;5.15;1.00;;;;;;;9.44;26.84;100200.75;5114814;28;20058;-78
2023/01/21 09:38:11;;;;;;;1.17;0.90;;;;;;;9.29;27.18;100198.50;5116183;28;20129;-78
2023/01/21 09:41:10;;;;;;;1.48;0.80;;;;;;;9.36;26.29;100198.81;5108151;28;20042;-78
2023/01/21 09:44:10;;;;;;;0.93;0.55;;;;;;;9.37;26.64;100196.91;5114182;27;20093;-78
2023/01/21 09:47:02;;;;;;;2.30;0.50;;;;;;;9.34;26.90;100202.97;5115596;28;20047;-77
2023/01/21 09:49:57;;;;;;;1.58;0.60;;;;;;;9.18;26.73;100196.41;5095369;28;20051;-78
2023/01/21 09:52:50;;;;;;;3.58;0.80;;;;;;;9.11;25.87;100193.38;5087926;28;20054;-78
2023/01/21 09:55:48;;;;;;;1.25;0.80;;;;;;;8.96;27.09;100189.22;5114950;27;20046;-78
2023/01/21 09:58:50;;;;;;;5.45;1.42;;;;;;;8.61;28.32;100191.06;5104204;28;20407;-78
2023/01/21 10:01:39;;;;;;;2.28;1.50;;;;;;;8.54;28.74;100185.28;5113571;28;20422;-79
2023/01/21 10:04:34;;;;;;;2.45;0.95;;;;;;;8.58;28.12;100176.22;5111995;28;20050;-78
2023/01/21 10:07:34;;;;;;;2.47;0.77;;;;;;;8.65;26.83;100170.34;5104176;28;20039;-78
2023/01/21 10:10:39;;;;;;;4.05;1.80;;;;;;;8.53;29.63;100178.28;5098664;28;20043;-78
2023/01/21 10:13:38;;;;;;;1.23;0.80;;;;;;;8.56;26.15;100170.31;5113137;28;20066;-77
2023/01/21 10:16:48;;;;;;;0.88;0.40;;;;;;;8.75;27.14;100174.66;5109868;28;20043;-78
2023/01/21 10:19:45;;;;;;;1.08;0.73;;;;;;;8.71;27.41;100166.38;5110328;28;20072;-78
2023/01/21 10:22:29;;;;;;;0.85;0.70;;;;;;;8.80;26.74;100161.75;5112199;28;20525;-77
2023/01/21 10:25:21;;;;;;;0.30;0.30;;;;;;;8.81;26.25;100154.41;5110097;28;20055;-78
2023/01/21 10:28:15;;;;;;;0.47;0.40;;;;;;;8.86;25.86;100149.66;5088490;28;20043;-77
2023/01/21 10:31:06;;;;;;;1.25;0.50;;;;;;;8.88;26.61;100143.91;5099487;28;20043;-77
2023/01/21 10:33:52;;;;;;;0.30;0.30;;;;;;;8.95;26.82;100136.09;5106079;28;20434;-79
2023/01/21 10:36:55;;;;;;;0.85;0.77;;;;;;;8.89;25.40;100140.88;5112872;28;20674;-77
2023/01/21 10:40:41;;;;;;;0.52;0.40;;;;;;;8.94;25.40;100129.06;5113427;28;20074;-78
2023/01/21 10:43:48;;;;;;;6.60;0.73;;;;;;;8.95;25.37;100136.09;5103934;28;20054;-78
2023/01/21 10:46:58;;;;;;;1.23;0.60;;;;;;;8.92;24.62;100121.28;5095647;28;20047;-77
2023/01/21 10:49:55;;;;;;;2.00;0.68;;;;;;;8.95;25.16;100117.09;5105883;27;20411;-78
2023/01/21 10:52:48;;;;;;;1.98;0.70;;;;;;;8.94;24.76;100123.63;5117183;27;20043;-78
2023/01/21 10:55:33;;;;;;;1.42;0.60;;;;;;;9.07;25.89;100117.28;5108360;28;20046;-78
2023/01/21 10:58:25;;;;;;;1.20;0.40;;;;;;;9.06;25.17;100109.44;5110886;28;20054;-78
2023/01/21 11:01:20;;;;;;;6.35;2.58;;;;;;;9.06;24.96;100104.03;5108200;28;20038;-78
2023/01/21 11:04:19;;;;;;;9.23;0.68;;;;;;;9.09;25.05;100104.22;5090406;28;20050;-78
2023/01/21 11:07:06;;;;;;;3.00;0.50;;;;;;;9.07;24.30;100092.88;5101567;28;20402;-78
2023/01/21 11:09:51;;;;;;;0.57;0.40;;;;;;;9.17;26.21;100095.25;5113665;28;20109;-79
2023/01/21 11:12:38;;;;;;;0.95;0.70;;;;;;;9.27;25.76;100089.50;5113472;28;20113;-77
2023/01/21 11:15:23;;;;;;;2.28;1.77;;;;;;;9.27;24.45;100088.69;5096360;28;20525;-77
2023/01/21 11:18:32;;;;;;;0.40;0.40;;;;;;;9.27;24.79;100084.06;5108161;28;20429;-77
2023/01/21 11:21:23;;;;;;;0.50;0.50;;;;;;;9.34;24.49;100084.38;5082305;28;20043;-78
2023/01/21 11:24:21;;;;;;;0.57;0.40;;;;;;;9.39;24.31;100084.22;5103333;28;20047;-78
2023/01/21 11:27:20;;;;;;;1.65;0.47;;;;;;;9.41;24.53;100087.38;5112062;27;20122;-78
2023/01/21 11:30:26;;;;;;;0.65;0.30;;;;;;;9.56;24.35;100072.50;5114557;27;20030;-77
2023/01/21 11:33:31;;;;;;;0.93;0.60;;;;;;;9.57;24.07;100076.03;5099999;28;20046;-77
2023/01/21 11:36:17;;;;;;;1.33;0.60;;;;;;;9.71;24.43;100065.75;5110512;27;20042;-78
2023/01/21 11:39:08;;;;;;;2.72;0.60;;;;;;;9.68;24.04;100064.50;5094426;28;20058;-77
2023/01/21 11:42:01;;;;;;;1.55;0.68;;;;;;;9.81;25.09;100068.09;5102977;28;20054;-77
2023/01/21 11:45:19;;;;;;;4.88;1.33;;;;;;;9.75;23.88;100053.91;5112740;28;20403;-78
2023/01/21 11:48:19;;;;;;;1.33;0.60;;;;;;;9.85;25.01;100050.81;5101528;28;20039;-77
2023/01/21 11:51:07;;;;;;;0.98;0.60;;;;;;;9.86;23.65;100043.47;5106521;27;20050;-77
2023/01/21 11:54:21;;;;;;;18.08;1.58;;;;;;;9.88;24.35;100046.69;5104924;28;20040;-78
2023/01/21 11:57:25;;;;;;;0.80;0.80;;;;;;;9.86;23.12;100029.91;5101303;28;20050;-78
2023/01/21 12:00:22;;;;;;;3.17;0.50;;;;;;;9.94;24.21;100031.81;5086909;28;20039;-78
2023/01/21 12:03:17;;;;;;;0.60;0.50;;;;;;;10.12;23.57;100040.63;5102381;28;20514;-78
2023/01/21 12:06:05;;;;;;;0.47;0.40;;;;;;;10.17;23.91;100024.97;5094390;28;20038;-78
2023/01/21 12:08:55;;;;;;;0.60;0.40;;;;;;;10.00;22.82;100025.06;5098731;28;20031;-77
2023/01/21 12:11:39;;;;;;;0.93;0.55;;;;;;;10.18;24.23;100012.19;5106605;28;20517;-78
2023/01/21 12:14:33;;;;;;;1.75;0.45;;;;;;;10.47;24.04;100020.28;5104215;28;20054;-78
2023/01/21 12:17:47;;;;;;;2.00;0.45;;;;;;;10.62;23.01;100011.53;5099508;28;20039;-78
2023/01/21 12:20:35;;;;;;;0.28;0.28;;;;;;;10.79;24.06;100009.81;5110263;28;20055;-79
2023/01/21 12:24:00;;;;;;;0.28;0.28;;;;;;;10.70;22.36;100005.25;5112246;28;20051;-79
2023/01/21 12:26:55;;;;;;;1.90;0.93;;;;;;;10.81;22.38;100000.19;5106786;27;20043;-78
2023/01/21 12:29:53;;;;;;;0.40;0.20;;;;;;;11.05;23.42;100003.00;5089690;28;20046;-79
2023/01/21 12:32:44;;;;;;;0.93;0.50;;;;;;;10.88;22.97;99997.72;5100970;28;20043;-79
2023/01/21 12:35:36;;;;;;;4.78;0.40;;;;;;;10.86;22.96;99997.28;5109376;27;20039;-78
2023/01/21 12:38:30;;;;;;;0.30;0.30;;;;;;;10.88;22.51;99997.72;5095149;28;20047;-78
2023/01/21 12:41:26;;;;;;;1.95;0.75;;;;;;;10.88;22.29;99991.47;5109019;28;20042;-78
2023/01/21 12:44:29;;;;;;;2.67;1.40;;;;;;;11.00;22.16;99997.78;5111229;27;20038;-79
2023/01/21 12:47:17;;;;;;;2.90;1.08;;;;;;;11.39;22.17;99999.09;5116469;27;20053;-78
2023/01/21 12:50:26;;;;;;;0.75;0.50;;;;;;;11.59;22.29;99994.69;5118668;28;20516;-78
2023/01/21 12:53:25;;;;;;;1.25;0.70;;;;;;;12.10;23.45;99987.00;5097464;28;20047;-78
2023/01/21 12:56:22;;;;;;;3.00;1.10;;;;;;;11.89;22.37;99984.41;5109401;28;20046;-79
2023/01/21 12:59:07;;;;;;;1.33;0.57;;;;;;;11.68;21.55;99989.16;5098473;28;20047;-78
2023/01/21 13:02:11;;;;;;;0.93;0.80;;;;;;;11.80;23.07;99984.53;5114739;28;20509;-78
2023/01/21 13:05:14;;;;;;;0.82;0.82;;;;;;;11.61;22.18;99984.28;5115856;28;20042;-79
2023/01/21 13:08:27;;;;;;;1.35;0.50;;;;;;;11.62;22.46;99985.06;5105571;28;20117;-80
2023/01/21 13:11:19;;;;;;;4.72;0.80;;;;;;;12.14;27.18;99987.91;5098375;28;20058;-80
2023/01/21 13:14:07;;;;;;;1.88;0.55;;;;;;;11.91;22.79;99974.75;5118995;27;20050;-79
2023/01/21 13:16:58;;;;;;;2.03;0.68;;;;;;;11.59;22.03;99975.63;5111319;28;20078;-79
2023/01/21 13:19:43;;;;;;;5.43;1.13;;;;;;;11.24;22.15;99974.47;5127373;28;20043;-79
2023/01/21 13:22:39;;;;;;;1.50;0.90;;;;;;;11.37;22.21;99984.25;5126846;28;20055;-79
2023/01/21 13:25:56;;;;;;;2.08;0.88;;;;;;;11.23;22.78;99972.88;5116398;28;20058;-79
2023/01/21 13:28:53;;;;;;;1.30;1.10;;;;;;;11.17;22.44;99982.41;5125495;28;20042;-78
2023/01/21 13:31:37;;;;;;;1.90;1.35;;;;;;;11.84;22.69;99988.16;5120164;28;20050;-80
2023/01/21 13:34:31;;;;;;;0.70;0.60;;;;;;;12.98;20.57;99991.50;5126616;28;20418;-79
2023/01/21 13:37:39;;;;;;;2.03;0.40;;;;;;;12.93;23.70;99989.03;5124747;27;20050;-80
2023/01/21 13:40:42;;;;;;;4.72;0.82;;;;;;;12.05;24.69;99989.94;5119532;27;20072;-79
2023/01/21 13:43:39;;;;;;;0.98;0.60;;;;;;;11.64;26.45;99997.19;5126548;27;20055;-80
2023/01/21 13:47:08;;;;;;;2.65;1.00;;;;;;;11.49;27.55;100000.59;5127044;28;20042;-79
2023/01/21 13:49:58;;;;;;;1.38;0.70;;;;;;;11.63;28.21;100003.00;5101878;28;20039;-79
2023/01/21 13:52:55;;;;;;;2.42;0.90;;;;;;;11.38;28.77;100008.41;5111838;28;20054;-79
2023/01/21 13:56:03;;;;;;;2.33;1.17;;;;;;;11.29;29.60;100010.41;5127731;28;20051;-80
2023/01/21 13:58:57;;;;;;;1.70;1.20;;;;;;;11.45;29.43;100013.28;5126999;28;20051;-80
2023/01/21 14:01:48;;;;;;;5.88;1.45;;;;;;;11.22;31.25;100018.34;5109605;28;20046;-80
2023/01/21 14:05:08;;;;;;;3.05;1.70;;;;;;;11.28;30.78;100010.75;5100949;28;20046;-80
2023/01/21 14:08:00;;;;;;;6.68;2.95;;;;;;;11.28;36.62;100024.34;5119916;28;20043;-81
2023/01/21 14:10:49;;;;;;;12.07;3.30;;;;;;;11.21;38.78;100029.56;5117364;28;20034;-80
2023/01/21 14:13:46;;;;;;;5.63;3.60;;;;;;;11.03;41.97;100035.19;5099265;28;20624;-80
2023/01/21 14:17:09;;;;;;;6.78;3.72;;;;;;;10.78;44.41;100046.28;5094910;28;20066;-80
2023/01/21 14:20:10;;;;;;;4.65;3.95;;;;;;;10.68;45.72;100047.47;5094197;28;20055;-80